sensor_id;sensor_type;location;lat;lon;timestamp;P1;durP1;ratioP1;P2;durP2;ratioP2
19944;SDS011;10134;50.952;6.930;2023-08-21T00:00:25;8.85;;;5.80;;
19944;SDS011;10134;50.952;6.930;2023-08-21T00:02:52;7.68;;;5.65;;
19944;SDS011;10134;50.952;6.930;2023-08-21T00:05:20;9.50;;;5.00;;
19944;SDS011;10134;50.952;6.930;2023-08-21T00:07:47;7.93;;;5.57;;
19944;SDS011;10134;50.952;6.930;2023-08-21T00:10:17;7.03;;;5.82;;
19944;SDS011;10134;50.952;6.930;2023-08-21T00:12:45;8.88;;;6.18;;
19944;SDS011;10134;50.952;6.930;2023-08-21T00:15:12;7.72;;;5.82;;
19944;SDS011;10134;50.952;6.930;2023-08-21T00:17:39;7.00;;;5.28;;
19944;SDS011;10134;50.952;6.930;2023-08-21T00:20:07;8.15;;;5.32;;
19944;SDS011;10134;50.952;6.930;2023-08-21T00:22:36;7.82;;;5.45;;
19944;SDS011;10134;50.952;6.930;2023-08-21T00:25:04;8.55;;;5.75;;
19944;SDS011;10134;50.952;6.930;2023-08-21T00:27:32;10.73;;;5.93;;
19944;SDS011;10134;50.952;6.930;2023-08-21T00:30:00;12.52;;;6.07;;
19944;SDS011;10134;50.952;6.930;2023-08-21T00:32:27;7.03;;;5.97;;
19944;SDS011;10134;50.952;6.930;2023-08-21T00:34:55;11.02;;;5.40;;
19944;SDS011;10134;50.952;6.930;2023-08-21T00:37:22;6.72;;;5.30;;
19944;SDS011;10134;50.952;6.930;2023-08-21T00:39:49;8.13;;;6.20;;
19944;SDS011;10134;50.952;6.930;2023-08-21T00:42:17;9.85;;;6.57;;
19944;SDS011;10134;50.952;6.930;2023-08-21T00:44:44;11.73;;;5.90;;
19944;SDS011;10134;50.952;6.930;2023-08-21T00:47:12;7.03;;;5.25;;
19944;SDS011;10134;50.952;6.930;2023-08-21T00:49:39;7.43;;;5.43;;
19944;SDS011;10134;50.952;6.930;2023-08-21T00:52:07;8.10;;;5.57;;
19944;SDS011;10134;50.952;6.930;2023-08-21T00:54:36;5.93;;;5.25;;
19944;SDS011;10134;50.952;6.930;2023-08-21T00:57:05;8.48;;;5.18;;
19944;SDS011;10134;50.952;6.930;2023-08-21T00:59:32;6.57;;;5.60;;
19944;SDS011;10134;50.952;6.930;2023-08-21T01:02:00;9.38;;;5.40;;
19944;SDS011;10134;50.952;6.930;2023-08-21T01:04:28;9.45;;;5.90;;
19944;SDS011;10134;50.952;6.930;2023-08-21T01:06:56;6.18;;;4.43;;
19944;SDS011;10134;50.952;6.930;2023-08-21T01:09:29;12.68;;;5.53;;
19944;SDS011;10134;50.952;6.930;2023-08-21T01:17:25;7.80;;;4.85;;
19944;SDS011;10134;50.952;6.930;2023-08-21T01:19:55;10.00;;;5.60;;
19944;SDS011;10134;50.952;6.930;2023-08-21T01:22:27;8.35;;;4.82;;
19944;SDS011;10134;50.952;6.930;2023-08-21T01:24:54;7.18;;;4.90;;
19944;SDS011;10134;50.952;6.930;2023-08-21T01:27:22;8.15;;;5.25;;
19944;SDS011;10134;50.952;6.930;2023-08-21T01:29:49;10.23;;;5.43;;
19944;SDS011;10134;50.952;6.930;2023-08-21T01:32:21;8.48;;;5.00;;
19944;SDS011;10134;50.952;6.930;2023-08-21T01:34:59;7.47;;;5.20;;
19944;SDS011;10134;50.952;6.930;2023-08-21T01:37:29;8.80;;;4.82;;
19944;SDS011;10134;50.952;6.930;2023-08-21T01:40:00;9.98;;;6.03;;
19944;SDS011;10134;50.952;6.930;2023-08-21T01:42:27;8.27;;;4.90;;
19944;SDS011;10134;50.952;6.930;2023-08-21T01:44:55;9.30;;;4.57;;
19944;SDS011;10134;50.952;6.930;2023-08-21T01:47:22;6.32;;;4.97;;
19944;SDS011;10134;50.952;6.930;2023-08-21T01:49:50;7.00;;;4.82;;
19944;SDS011;10134;50.952;6.930;2023-08-21T01:52:19;8.15;;;5.00;;
19944;SDS011;10134;50.952;6.930;2023-08-21T01:54:49;7.30;;;4.80;;
19944;SDS011;10134;50.952;6.930;2023-08-21T01:57:17;7.85;;;5.28;;
19944;SDS011;10134;50.952;6.930;2023-08-21T01:59:45;16.80;;;5.05;;
19944;SDS011;10134;50.952;6.930;2023-08-21T02:02:12;7.70;;;5.03;;
19944;SDS011;10134;50.952;6.930;2023-08-21T02:04:39;5.68;;;4.70;;
19944;SDS011;10134;50.952;6.930;2023-08-21T02:07:06;10.85;;;5.45;;
19944;SDS011;10134;50.952;6.930;2023-08-21T02:09:34;7.47;;;4.72;;
19944;SDS011;10134;50.952;6.930;2023-08-21T02:12:01;10.90;;;4.70;;
19944;SDS011;10134;50.952;6.930;2023-08-21T02:14:28;8.40;;;4.68;;
19944;SDS011;10134;50.952;6.930;2023-08-21T02:16:56;9.10;;;5.13;;
19944;SDS011;10134;50.952;6.930;2023-08-21T02:19:23;7.90;;;5.18;;
19944;SDS011;10134;50.952;6.930;2023-08-21T02:21:51;4.85;;;3.78;;
19944;SDS011;10134;50.952;6.930;2023-08-21T02:24:18;5.85;;;4.60;;
19944;SDS011;10134;50.952;6.930;2023-08-21T02:26:45;10.73;;;5.40;;
19944;SDS011;10134;50.952;6.930;2023-08-21T02:29:13;7.32;;;4.55;;
19944;SDS011;10134;50.952;6.930;2023-08-21T02:31:41;7.78;;;4.80;;
19944;SDS011;10134;50.952;6.930;2023-08-21T02:34:09;6.75;;;4.95;;
19944;SDS011;10134;50.952;6.930;2023-08-21T02:36:36;10.23;;;4.55;;
19944;SDS011;10134;50.952;6.930;2023-08-21T02:39:03;6.00;;;4.18;;
19944;SDS011;10134;50.952;6.930;2023-08-21T02:41:32;9.70;;;4.85;;
19944;SDS011;10134;50.952;6.930;2023-08-21T02:44:00;13.68;;;4.88;;
19944;SDS011;10134;50.952;6.930;2023-08-21T02:46:27;9.00;;;4.80;;
19944;SDS011;10134;50.952;6.930;2023-08-21T02:48:54;11.18;;;4.45;;
19944;SDS011;10134;50.952;6.930;2023-08-21T02:51:23;8.02;;;4.40;;
19944;SDS011;10134;50.952;6.930;2023-08-21T02:53:50;5.95;;;3.75;;
19944;SDS011;10134;50.952;6.930;2023-08-21T02:56:18;6.10;;;4.28;;
19944;SDS011;10134;50.952;6.930;2023-08-21T02:58:45;6.88;;;4.10;;
19944;SDS011;10134;50.952;6.930;2023-08-21T03:01:12;6.28;;;4.03;;
19944;SDS011;10134;50.952;6.930;2023-08-21T03:03:40;8.00;;;3.45;;
19944;SDS011;10134;50.952;6.930;2023-08-21T03:06:07;8.70;;;4.32;;
19944;SDS011;10134;50.952;6.930;2023-08-21T03:08:36;6.03;;;3.97;;
19944;SDS011;10134;50.952;6.930;2023-08-21T03:11:03;5.13;;;3.80;;
19944;SDS011;10134;50.952;6.930;2023-08-21T03:13:32;11.82;;;5.03;;
19944;SDS011;10134;50.952;6.930;2023-08-21T03:16:00;9.88;;;4.55;;
19944;SDS011;10134;50.952;6.930;2023-08-21T03:18:30;9.35;;;4.10;;
19944;SDS011;10134;50.952;6.930;2023-08-21T03:20:58;10.93;;;4.85;;
19944;SDS011;10134;50.952;6.930;2023-08-21T03:23:27;6.40;;;4.43;;
19944;SDS011;10134;50.952;6.930;2023-08-21T03:25:54;10.38;;;4.93;;
19944;SDS011;10134;50.952;6.930;2023-08-21T03:28:21;6.68;;;4.15;;
19944;SDS011;10134;50.952;6.930;2023-08-21T03:30:49;8.27;;;4.93;;
19944;SDS011;10134;50.952;6.930;2023-08-21T03:33:16;6.68;;;4.53;;
19944;SDS011;10134;50.952;6.930;2023-08-21T03:35:44;6.80;;;4.22;;
19944;SDS011;10134;50.952;6.930;2023-08-21T03:38:11;4.97;;;3.92;;
19944;SDS011;10134;50.952;6.930;2023-08-21T03:40:43;8.27;;;4.00;;
19944;SDS011;10134;50.952;6.930;2023-08-21T03:43:11;9.35;;;4.32;;
19944;SDS011;10134;50.952;6.930;2023-08-21T03:45:39;10.02;;;4.05;;
19944;SDS011;10134;50.952;6.930;2023-08-21T03:48:06;8.30;;;4.20;;
19944;SDS011;10134;50.952;6.930;2023-08-21T03:50:34;9.55;;;5.10;;
19944;SDS011;10134;50.952;6.930;2023-08-21T03:53:01;8.73;;;4.78;;
19944;SDS011;10134;50.952;6.930;2023-08-21T03:55:29;5.30;;;4.07;;
19944;SDS011;10134;50.952;6.930;2023-08-21T03:57:56;15.93;;;5.05;;
19944;SDS011;10134;50.952;6.930;2023-08-21T04:00:23;9.98;;;4.97;;
19944;SDS011;10134;50.952;6.930;2023-08-21T04:02:51;9.10;;;5.18;;
19944;SDS011;10134;50.952;6.930;2023-08-21T04:05:18;9.32;;;4.93;;
19944;SDS011;10134;50.952;6.930;2023-08-21T04:07:46;8.05;;;4.50;;
19944;SDS011;10134;50.952;6.930;2023-08-21T04:10:13;10.85;;;4.45;;
19944;SDS011;10134;50.952;6.930;2023-08-21T04:12:41;10.02;;;5.10;;
19944;SDS011;10134;50.952;6.930;2023-08-21T04:15:08;5.78;;;4.25;;
19944;SDS011;10134;50.952;6.930;2023-08-21T04:17:36;6.95;;;4.50;;
19944;SDS011;10134;50.952;6.930;2023-08-21T04:20:04;7.97;;;5.47;;
19944;SDS011;10134;50.952;6.930;2023-08-21T04:22:33;6.93;;;5.00;;
19944;SDS011;10134;50.952;6.930;2023-08-21T04:25:01;4.97;;;4.25;;
19944;SDS011;10134;50.952;6.930;2023-08-21T04:27:28;7.05;;;4.65;;
19944;SDS011;10134;50.952;6.930;2023-08-21T04:29:55;7.68;;;5.20;;
19944;SDS011;10134;50.952;6.930;2023-08-21T04:32:23;8.18;;;5.60;;
19944;SDS011;10134;50.952;6.930;2023-08-21T04:34:50;8.07;;;5.38;;
19944;SDS011;10134;50.952;6.930;2023-08-21T04:37:17;9.38;;;5.03;;
19944;SDS011;10134;50.952;6.930;2023-08-21T04:39:45;9.70;;;5.68;;
19944;SDS011;10134;50.952;6.930;2023-08-21T04:42:13;10.30;;;6.07;;
19944;SDS011;10134;50.952;6.930;2023-08-21T04:44:40;10.07;;;5.85;;
19944;SDS011;10134;50.952;6.930;2023-08-21T04:47:24;8.57;;;5.60;;
19944;SDS011;10134;50.952;6.930;2023-08-21T04:49:58;7.80;;;5.07;;
19944;SDS011;10134;50.952;6.930;2023-08-21T04:52:27;7.68;;;5.05;;
19944;SDS011;10134;50.952;6.930;2023-08-21T04:54:55;19.23;;;6.13;;
19944;SDS011;10134;50.952;6.930;2023-08-21T04:57:22;8.45;;;4.45;;
19944;SDS011;10134;50.952;6.930;2023-08-21T04:59:50;9.13;;;5.45;;
19944;SDS011;10134;50.952;6.930;2023-08-21T05:02:19;13.65;;;5.68;;
19944;SDS011;10134;50.952;6.930;2023-08-21T05:04:49;7.28;;;5.22;;
19944;SDS011;10134;50.952;6.930;2023-08-21T05:07:16;7.35;;;4.78;;
19944;SDS011;10134;50.952;6.930;2023-08-21T05:09:43;7.63;;;4.95;;
19944;SDS011;10134;50.952;6.930;2023-08-21T05:12:12;9.90;;;5.70;;
19944;SDS011;10134;50.952;6.930;2023-08-21T05:14:40;7.88;;;5.68;;
19944;SDS011;10134;50.952;6.930;2023-08-21T05:17:07;7.03;;;5.47;;
19944;SDS011;10134;50.952;6.930;2023-08-21T05:19:35;8.82;;;6.00;;
19944;SDS011;10134;50.952;6.930;2023-08-21T05:22:03;9.30;;;5.57;;
19944;SDS011;10134;50.952;6.930;2023-08-21T05:24:31;6.72;;;4.95;;
19944;SDS011;10134;50.952;6.930;2023-08-21T05:27:02;9.77;;;5.72;;
19944;SDS011;10134;50.952;6.930;2023-08-21T05:29:31;8.45;;;5.25;;
19944;SDS011;10134;50.952;6.930;2023-08-21T05:31:59;15.40;;;5.68;;
19944;SDS011;10134;50.952;6.930;2023-08-21T05:34:28;7.20;;;5.53;;
19944;SDS011;10134;50.952;6.930;2023-08-21T05:36:56;7.18;;;5.20;;
19944;SDS011;10134;50.952;6.930;2023-08-21T05:39:24;10.60;;;4.97;;
19944;SDS011;10134;50.952;6.930;2023-08-21T05:41:52;11.20;;;5.90;;
19944;SDS011;10134;50.952;6.930;2023-08-21T05:44:20;7.35;;;5.38;;
19944;SDS011;10134;50.952;6.930;2023-08-21T05:46:47;8.70;;;5.72;;
19944;SDS011;10134;50.952;6.930;2023-08-21T05:49:15;6.70;;;4.93;;
19944;SDS011;10134;50.952;6.930;2023-08-21T05:51:43;12.88;;;6.78;;
19944;SDS011;10134;50.952;6.930;2023-08-21T05:54:10;9.38;;;6.60;;
19944;SDS011;10134;50.952;6.930;2023-08-21T05:56:39;8.02;;;5.60;;
19944;SDS011;10134;50.952;6.930;2023-08-21T05:59:09;7.78;;;5.43;;
19944;SDS011;10134;50.952;6.930;2023-08-21T06:01:37;9.25;;;5.40;;
19944;SDS011;10134;50.952;6.930;2023-08-21T06:04:05;17.08;;;5.35;;
19944;SDS011;10134;50.952;6.930;2023-08-21T06:06:41;9.48;;;6.43;;
19944;SDS011;10134;50.952;6.930;2023-08-21T06:09:09;6.82;;;5.65;;
19944;SDS011;10134;50.952;6.930;2023-08-21T06:11:37;13.02;;;6.82;;
19944;SDS011;10134;50.952;6.930;2023-08-21T06:14:05;8.35;;;5.47;;
19944;SDS011;10134;50.952;6.930;2023-08-21T06:16:33;11.20;;;6.80;;
19944;SDS011;10134;50.952;6.930;2023-08-21T06:19:00;10.98;;;5.68;;
19944;SDS011;10134;50.952;6.930;2023-08-21T06:21:27;10.20;;;5.47;;
19944;SDS011;10134;50.952;6.930;2023-08-21T06:23:55;7.40;;;4.93;;
19944;SDS011;10134;50.952;6.930;2023-08-21T06:26:22;5.43;;;4.22;;
19944;SDS011;10134;50.952;6.930;2023-08-21T06:28:51;9.02;;;4.50;;
19944;SDS011;10134;50.952;6.930;2023-08-21T06:31:18;10.07;;;4.95;;
19944;SDS011;10134;50.952;6.930;2023-08-21T06:33:47;9.65;;;4.68;;
19944;SDS011;10134;50.952;6.930;2023-08-21T06:36:14;10.75;;;5.15;;
19944;SDS011;10134;50.952;6.930;2023-08-21T06:38:41;8.98;;;5.07;;
19944;SDS011;10134;50.952;6.930;2023-08-21T06:41:09;9.30;;;4.68;;
19944;SDS011;10134;50.952;6.930;2023-08-21T06:43:38;7.70;;;4.45;;
19944;SDS011;10134;50.952;6.930;2023-08-21T06:46:12;8.20;;;5.47;;
19944;SDS011;10134;50.952;6.930;2023-08-21T06:48:42;8.60;;;4.32;;
19944;SDS011;10134;50.952;6.930;2023-08-21T06:51:11;8.15;;;4.60;;
19944;SDS011;10134;50.952;6.930;2023-08-21T06:53:42;6.38;;;4.05;;
19944;SDS011;10134;50.952;6.930;2023-08-21T06:56:10;7.40;;;4.97;;
19944;SDS011;10134;50.952;6.930;2023-08-21T06:58:37;9.80;;;5.13;;
19944;SDS011;10134;50.952;6.930;2023-08-21T07:01:05;7.85;;;4.68;;
19944;SDS011;10134;50.952;6.930;2023-08-21T07:03:32;6.95;;;4.22;;
19944;SDS011;10134;50.952;6.930;2023-08-21T07:06:00;8.80;;;4.32;;
19944;SDS011;10134;50.952;6.930;2023-08-21T07:08:28;15.32;;;5.65;;
19944;SDS011;10134;50.952;6.930;2023-08-21T07:10:55;10.00;;;5.07;;
19944;SDS011;10134;50.952;6.930;2023-08-21T07:13:23;7.70;;;4.65;;
19944;SDS011;10134;50.952;6.930;2023-08-21T07:15:52;9.13;;;4.80;;
19944;SDS011;10134;50.952;6.930;2023-08-21T07:18:21;8.43;;;4.55;;
19944;SDS011;10134;50.952;6.930;2023-08-21T07:20:51;9.93;;;5.25;;
19944;SDS011;10134;50.952;6.930;2023-08-21T07:23:19;12.23;;;5.15;;
19944;SDS011;10134;50.952;6.930;2023-08-21T07:25:46;8.95;;;5.75;;
19944;SDS011;10134;50.952;6.930;2023-08-21T07:28:14;9.13;;;5.05;;
19944;SDS011;10134;50.952;6.930;2023-08-21T07:30:41;10.63;;;5.68;;
19944;SDS011;10134;50.952;6.930;2023-08-21T07:33:09;10.57;;;5.97;;
19944;SDS011;10134;50.952;6.930;2023-08-21T07:35:36;11.90;;;5.93;;
19944;SDS011;10134;50.952;6.930;2023-08-21T07:38:04;10.82;;;6.10;;
19944;SDS011;10134;50.952;6.930;2023-08-21T07:40:31;7.03;;;5.25;;
19944;SDS011;10134;50.952;6.930;2023-08-21T07:42:58;7.53;;;5.32;;
19944;SDS011;10134;50.952;6.930;2023-08-21T07:45:25;8.43;;;5.30;;
19944;SDS011;10134;50.952;6.930;2023-08-21T07:47:53;10.80;;;5.28;;
19944;SDS011;10134;50.952;6.930;2023-08-21T07:50:38;7.63;;;4.90;;
19944;SDS011;10134;50.952;6.930;2023-08-21T07:53:06;8.70;;;5.18;;
19944;SDS011;10134;50.952;6.930;2023-08-21T07:55:33;8.32;;;5.72;;
19944;SDS011;10134;50.952;6.930;2023-08-21T07:58:00;10.63;;;7.13;;
19944;SDS011;10134;50.952;6.930;2023-08-21T08:00:28;12.18;;;8.00;;
19944;SDS011;10134;50.952;6.930;2023-08-21T08:02:55;10.20;;;6.57;;
19944;SDS011;10134;50.952;6.930;2023-08-21T08:05:22;8.90;;;6.65;;
19944;SDS011;10134;50.952;6.930;2023-08-21T08:07:50;8.27;;;5.10;;
19944;SDS011;10134;50.952;6.930;2023-08-21T08:10:17;19.40;;;9.18;;
19944;SDS011;10134;50.952;6.930;2023-08-21T08:12:44;15.50;;;10.43;;
19944;SDS011;10134;50.952;6.930;2023-08-21T08:15:12;10.02;;;7.25;;
19944;SDS011;10134;50.952;6.930;2023-08-21T08:17:39;15.55;;;6.93;;
19944;SDS011;10134;50.952;6.930;2023-08-21T08:20:06;16.02;;;7.20;;
19944;SDS011;10134;50.952;6.930;2023-08-21T08:22:34;15.93;;;7.65;;
19944;SDS011;10134;50.952;6.930;2023-08-21T08:25:02;8.75;;;6.55;;
19944;SDS011;10134;50.952;6.930;2023-08-21T08:27:32;12.43;;;7.65;;
19944;SDS011;10134;50.952;6.930;2023-08-21T08:30:00;11.98;;;7.30;;
19944;SDS011;10134;50.952;6.930;2023-08-21T08:32:27;11.88;;;7.90;;
19944;SDS011;10134;50.952;6.930;2023-08-21T08:34:55;13.80;;;7.97;;
19944;SDS011;10134;50.952;6.930;2023-08-21T08:37:22;9.15;;;6.40;;
19944;SDS011;10134;50.952;6.930;2023-08-21T08:39:50;12.85;;;7.38;;
19944;SDS011;10134;50.952;6.930;2023-08-21T08:42:17;14.07;;;8.07;;
19944;SDS011;10134;50.952;6.930;2023-08-21T08:44:44;10.98;;;5.82;;
19944;SDS011;10134;50.952;6.930;2023-08-21T08:47:13;11.85;;;7.82;;
19944;SDS011;10134;50.952;6.930;2023-08-21T08:49:42;16.27;;;8.30;;
19944;SDS011;10134;50.952;6.930;2023-08-21T08:52:09;9.93;;;7.07;;
19944;SDS011;10134;50.952;6.930;2023-08-21T08:54:38;10.10;;;7.05;;
19944;SDS011;10134;50.952;6.930;2023-08-21T08:57:05;12.20;;;8.20;;
19944;SDS011;10134;50.952;6.930;2023-08-21T08:59:32;12.98;;;7.63;;
19944;SDS011;10134;50.952;6.930;2023-08-21T09:02:00;12.77;;;6.72;;
19944;SDS011;10134;50.952;6.930;2023-08-21T09:04:27;12.10;;;8.15;;
19944;SDS011;10134;50.952;6.930;2023-08-21T09:07:10;12.88;;;6.88;;
19944;SDS011;10134;50.952;6.930;2023-08-21T09:09:39;7.93;;;5.55;;
19944;SDS011;10134;50.952;6.930;2023-08-21T09:12:10;11.18;;;6.10;;
19944;SDS011;10134;50.952;6.930;2023-08-21T09:14:41;11.13;;;7.20;;
19944;SDS011;10134;50.952;6.930;2023-08-21T09:17:09;11.13;;;7.55;;
19944;SDS011;10134;50.952;6.930;2023-08-21T09:19:36;12.10;;;8.20;;
19944;SDS011;10134;50.952;6.930;2023-08-21T09:22:08;13.07;;;8.05;;
19944;SDS011;10134;50.952;6.930;2023-08-21T09:24:37;15.63;;;9.10;;
19944;SDS011;10134;50.952;6.930;2023-08-21T09:27:10;14.65;;;8.40;;
19944;SDS011;10134;50.952;6.930;2023-08-21T09:29:41;11.30;;;8.13;;
19944;SDS011;10134;50.952;6.930;2023-08-21T09:32:09;12.52;;;8.13;;
19944;SDS011;10134;50.952;6.930;2023-08-21T09:34:36;17.95;;;8.00;;
19944;SDS011;10134;50.952;6.930;2023-08-21T09:37:04;12.68;;;7.47;;
19944;SDS011;10134;50.952;6.930;2023-08-21T09:39:34;14.60;;;7.53;;
19944;SDS011;10134;50.952;6.930;2023-08-21T09:42:06;11.85;;;6.65;;
19944;SDS011;10134;50.952;6.930;2023-08-21T09:44:41;14.15;;;6.47;;
19944;SDS011;10134;50.952;6.930;2023-08-21T09:47:10;14.52;;;7.65;;
19944;SDS011;10134;50.952;6.930;2023-08-21T09:49:38;10.02;;;6.60;;
19944;SDS011;10134;50.952;6.930;2023-08-21T09:52:06;11.80;;;6.70;;
19944;SDS011;10134;50.952;6.930;2023-08-21T09:54:37;12.60;;;6.00;;
19944;SDS011;10134;50.952;6.930;2023-08-21T09:57:05;14.52;;;6.65;;
19944;SDS011;10134;50.952;6.930;2023-08-21T09:59:32;13.98;;;6.95;;
19944;SDS011;10134;50.952;6.930;2023-08-21T10:02:00;12.43;;;7.53;;
19944;SDS011;10134;50.952;6.930;2023-08-21T10:04:31;13.52;;;7.95;;
19944;SDS011;10134;50.952;6.930;2023-08-21T10:07:01;11.50;;;7.30;;
19944;SDS011;10134;50.952;6.930;2023-08-21T10:09:32;13.48;;;7.97;;
19944;SDS011;10134;50.952;6.930;2023-08-21T10:12:00;16.00;;;7.00;;
19944;SDS011;10134;50.952;6.930;2023-08-21T10:14:28;15.20;;;8.93;;
19944;SDS011;10134;50.952;6.930;2023-08-21T10:16:56;14.73;;;8.75;;
19944;SDS011;10134;50.952;6.930;2023-08-21T10:19:23;12.60;;;8.93;;
19944;SDS011;10134;50.952;6.930;2023-08-21T10:21:58;16.48;;;9.55;;
19944;SDS011;10134;50.952;6.930;2023-08-21T10:24:27;12.38;;;8.90;;
19944;SDS011;10134;50.952;6.930;2023-08-21T10:26:58;12.38;;;8.73;;
19944;SDS011;10134;50.952;6.930;2023-08-21T10:29:26;11.68;;;7.07;;
19944;SDS011;10134;50.952;6.930;2023-08-21T10:32:12;17.63;;;9.55;;
19944;SDS011;10134;50.952;6.930;2023-08-21T10:34:40;11.98;;;8.43;;
19944;SDS011;10134;50.952;6.930;2023-08-21T10:37:20;18.98;;;10.05;;
19944;SDS011;10134;50.952;6.930;2023-08-21T10:39:56;15.52;;;8.38;;
19944;SDS011;10134;50.952;6.930;2023-08-21T10:42:39;14.50;;;8.68;;
19944;SDS011;10134;50.952;6.930;2023-08-21T10:45:11;20.80;;;10.18;;
19944;SDS011;10134;50.952;6.930;2023-08-21T10:47:39;12.85;;;8.88;;
19944;SDS011;10134;50.952;6.930;2023-08-21T10:50:07;16.95;;;9.32;;
19944;SDS011;10134;50.952;6.930;2023-08-21T10:52:37;12.48;;;8.70;;
19944;SDS011;10134;50.952;6.930;2023-08-21T10:55:11;18.30;;;8.63;;
19944;SDS011;10134;50.952;6.930;2023-08-21T10:57:40;18.25;;;10.48;;
19944;SDS011;10134;50.952;6.930;2023-08-21T11:00:09;14.13;;;9.00;;
19944;SDS011;10134;50.952;6.930;2023-08-21T11:02:42;11.68;;;7.07;;
19944;SDS011;10134;50.952;6.930;2023-08-21T11:05:11;13.07;;;8.55;;
19944;SDS011;10134;50.952;6.930;2023-08-21T11:07:40;19.80;;;10.85;;
19944;SDS011;10134;50.952;6.930;2023-08-21T11:10:16;13.70;;;8.40;;
19944;SDS011;10134;50.952;6.930;2023-08-21T11:12:51;10.05;;;7.13;;
19944;SDS011;10134;50.952;6.930;2023-08-21T11:15:23;17.40;;;7.63;;
19944;SDS011;10134;50.952;6.930;2023-08-21T11:18:01;12.70;;;8.55;;
19944;SDS011;10134;50.952;6.930;2023-08-21T11:20:33;14.52;;;8.93;;
19944;SDS011;10134;50.952;6.930;2023-08-21T11:23:03;12.45;;;8.48;;
19944;SDS011;10134;50.952;6.930;2023-08-21T11:25:35;11.68;;;7.78;;
19944;SDS011;10134;50.952;6.930;2023-08-21T11:28:05;16.05;;;9.23;;
19944;SDS011;10134;50.952;6.930;2023-08-21T11:30:35;11.40;;;7.85;;
19944;SDS011;10134;50.952;6.930;2023-08-21T11:33:12;13.25;;;7.80;;
19944;SDS011;10134;50.952;6.930;2023-08-21T11:35:41;9.40;;;7.63;;
19944;SDS011;10134;50.952;6.930;2023-08-21T11:38:18;11.05;;;8.65;;
19944;SDS011;10134;50.952;6.930;2023-08-21T11:40:53;13.82;;;7.95;;
19944;SDS011;10134;50.952;6.930;2023-08-21T11:46:03;14.52;;;8.38;;
19944;SDS011;10134;50.952;6.930;2023-08-21T11:48:32;10.80;;;7.10;;
19944;SDS011;10134;50.952;6.930;2023-08-21T11:51:00;12.90;;;6.78;;
19944;SDS011;10134;50.952;6.930;2023-08-21T11:53:31;14.52;;;8.02;;
19944;SDS011;10134;50.952;6.930;2023-08-21T11:56:00;14.00;;;7.55;;
19944;SDS011;10134;50.952;6.930;2023-08-21T11:58:28;9.35;;;6.53;;
19944;SDS011;10134;50.952;6.930;2023-08-21T12:01:02;8.18;;;6.35;;
19944;SDS011;10134;50.952;6.930;2023-08-21T12:03:35;13.38;;;6.85;;
19944;SDS011;10134;50.952;6.930;2023-08-21T12:06:07;9.52;;;5.55;;
19944;SDS011;10134;50.952;6.930;2023-08-21T12:08:35;9.15;;;5.95;;
19944;SDS011;10134;50.952;6.930;2023-08-21T12:11:03;8.75;;;6.40;;
19944;SDS011;10134;50.952;6.930;2023-08-21T12:13:30;8.93;;;5.72;;
19944;SDS011;10134;50.952;6.930;2023-08-21T12:16:02;8.82;;;5.30;;
19944;SDS011;10134;50.952;6.930;2023-08-21T12:18:30;9.50;;;5.22;;
19944;SDS011;10134;50.952;6.930;2023-08-21T12:20:57;7.97;;;5.35;;
19944;SDS011;10134;50.952;6.930;2023-08-21T12:23:24;6.82;;;4.88;;
19944;SDS011;10134;50.952;6.930;2023-08-21T12:25:55;12.80;;;5.30;;
19944;SDS011;10134;50.952;6.930;2023-08-21T12:28:22;20.85;;;13.40;;
19944;SDS011;10134;50.952;6.930;2023-08-21T12:30:49;10.27;;;5.53;;
19944;SDS011;10134;50.952;6.930;2023-08-21T12:33:17;10.88;;;5.55;;
19944;SDS011;10134;50.952;6.930;2023-08-21T12:35:50;9.35;;;5.40;;
19944;SDS011;10134;50.952;6.930;2023-08-21T12:38:18;7.57;;;4.75;;
19944;SDS011;10134;50.952;6.930;2023-08-21T12:40:47;5.85;;;4.65;;
19944;SDS011;10134;50.952;6.930;2023-08-21T12:43:14;8.85;;;4.35;;
19944;SDS011;10134;50.952;6.930;2023-08-21T12:45:41;6.88;;;4.80;;
19944;SDS011;10134;50.952;6.930;2023-08-21T12:48:09;7.10;;;4.25;;
19944;SDS011;10134;50.952;6.930;2023-08-21T12:50:36;10.55;;;4.18;;
19944;SDS011;10134;50.952;6.930;2023-08-21T12:53:03;7.82;;;4.40;;
19944;SDS011;10134;50.952;6.930;2023-08-21T12:55:31;9.60;;;5.00;;
19944;SDS011;10134;50.952;6.930;2023-08-21T12:57:58;10.27;;;4.15;;
19944;SDS011;10134;50.952;6.930;2023-08-21T13:00:25;6.90;;;3.40;;
19944;SDS011;10134;50.952;6.930;2023-08-21T13:02:52;5.63;;;3.92;;
19944;SDS011;10134;50.952;6.930;2023-08-21T13:05:20;8.02;;;3.88;;
19944;SDS011;10134;50.952;6.930;2023-08-21T13:07:47;7.18;;;3.88;;
19944;SDS011;10134;50.952;6.930;2023-08-21T13:10:15;7.07;;;3.40;;
19944;SDS011;10134;50.952;6.930;2023-08-21T13:12:42;4.53;;;3.13;;
19944;SDS011;10134;50.952;6.930;2023-08-21T13:15:10;6.03;;;3.00;;
19944;SDS011;10134;50.952;6.930;2023-08-21T13:17:37;5.93;;;2.90;;
19944;SDS011;10134;50.952;6.930;2023-08-21T13:20:05;4.30;;;2.90;;
19944;SDS011;10134;50.952;6.930;2023-08-21T13:22:46;4.32;;;2.70;;
19944;SDS011;10134;50.952;6.930;2023-08-21T13:25:15;8.50;;;3.20;;
19944;SDS011;10134;50.952;6.930;2023-08-21T13:27:44;7.38;;;3.22;;
19944;SDS011;10134;50.952;6.930;2023-08-21T13:30:12;4.25;;;2.65;;
19944;SDS011;10134;50.952;6.930;2023-08-21T13:32:40;6.28;;;3.00;;
19944;SDS011;10134;50.952;6.930;2023-08-21T13:35:07;3.38;;;2.65;;
19944;SDS011;10134;50.952;6.930;2023-08-21T13:37:38;4.53;;;2.55;;
19944;SDS011;10134;50.952;6.930;2023-08-21T13:40:07;6.25;;;3.00;;
19944;SDS011;10134;50.952;6.930;2023-08-21T13:42:40;6.63;;;3.08;;
19944;SDS011;10134;50.952;6.930;2023-08-21T13:45:09;8.75;;;3.28;;
19944;SDS011;10134;50.952;6.930;2023-08-21T13:47:39;5.35;;;2.28;;
19944;SDS011;10134;50.952;6.930;2023-08-21T13:50:09;6.07;;;3.17;;
19944;SDS011;10134;50.952;6.930;2023-08-21T13:52:37;4.65;;;2.58;;
19944;SDS011;10134;50.952;6.930;2023-08-21T13:55:06;5.90;;;2.63;;
19944;SDS011;10134;50.952;6.930;2023-08-21T13:57:36;6.97;;;2.40;;
19944;SDS011;10134;50.952;6.930;2023-08-21T14:00:05;7.20;;;2.38;;
19944;SDS011;10134;50.952;6.930;2023-08-21T14:02:34;6.93;;;2.55;;
19944;SDS011;10134;50.952;6.930;2023-08-21T14:05:02;5.15;;;2.10;;
19944;SDS011;10134;50.952;6.930;2023-08-21T14:07:31;4.75;;;2.40;;
19944;SDS011;10134;50.952;6.930;2023-08-21T14:09:59;8.43;;;2.28;;
19944;SDS011;10134;50.952;6.930;2023-08-21T14:12:28;3.10;;;2.35;;
19944;SDS011;10134;50.952;6.930;2023-08-21T14:14:57;8.85;;;2.30;;
19944;SDS011;10134;50.952;6.930;2023-08-21T14:17:26;4.32;;;2.30;;
19944;SDS011;10134;50.952;6.930;2023-08-21T14:19:54;3.38;;;2.05;;
19944;SDS011;10134;50.952;6.930;2023-08-21T14:22:22;5.50;;;2.53;;
19944;SDS011;10134;50.952;6.930;2023-08-21T14:24:49;4.15;;;2.40;;
19944;SDS011;10134;50.952;6.930;2023-08-21T14:27:17;12.00;;;4.75;;
19944;SDS011;10134;50.952;6.930;2023-08-21T14:29:44;4.60;;;2.88;;
19944;SDS011;10134;50.952;6.930;2023-08-21T14:32:13;5.10;;;2.63;;
19944;SDS011;10134;50.952;6.930;2023-08-21T14:34:40;7.57;;;2.80;;
19944;SDS011;10134;50.952;6.930;2023-08-21T14:37:08;6.07;;;2.40;;
19944;SDS011;10134;50.952;6.930;2023-08-21T14:39:37;7.07;;;2.63;;
19944;SDS011;10134;50.952;6.930;2023-08-21T14:42:05;4.53;;;2.25;;
19944;SDS011;10134;50.952;6.930;2023-08-21T14:44:32;9.85;;;2.33;;
19944;SDS011;10134;50.952;6.930;2023-08-21T14:46:59;8.52;;;2.42;;
19944;SDS011;10134;50.952;6.930;2023-08-21T14:49:30;5.30;;;2.45;;
19944;SDS011;10134;50.952;6.930;2023-08-21T14:51:58;6.35;;;2.42;;
19944;SDS011;10134;50.952;6.930;2023-08-21T14:54:26;3.50;;;2.28;;
19944;SDS011;10134;50.952;6.930;2023-08-21T14:56:53;7.65;;;3.03;;
19944;SDS011;10134;50.952;6.930;2023-08-21T14:59:20;4.00;;;2.20;;